createdAt,value
2017-01-02T00:00:11.275Z,-1.25
2017-01-02T00:01:11.192Z,-1.2
2017-01-02T00:02:11.145Z,-1.25
2017-01-02T00:03:11.108Z,-1.22
2017-01-02T00:04:10.669Z,-1.23
2017-01-02T00:05:12.467Z,-1.31
2017-01-02T00:06:10.974Z,-1.31
2017-01-02T00:07:10.929Z,-1.27
2017-01-02T00:08:10.882Z,-1.16
2017-01-02T00:09:10.839Z,-1.17
2017-01-02T00:10:10.810Z,-1.3
2017-01-02T00:11:10.372Z,-1.19
2017-01-02T00:12:10.714Z,-1.23
2017-01-02T00:13:10.282Z,-1.25
2017-01-02T00:14:09.852Z,-1.23
2017-01-02T00:15:10.592Z,-1.28
2017-01-02T00:16:10.536Z,-1.34
2017-01-02T00:17:10.495Z,-1.41
2017-01-02T00:18:10.451Z,-1.28
2017-01-02T00:19:10.406Z,-1.27
2017-01-02T00:20:10.364Z,-1.28
2017-01-02T00:21:10.322Z,-1.31
2017-01-02T00:22:10.279Z,-1.3
2017-01-02T00:23:09.850Z,-1.28
2017-01-02T00:24:10.190Z,-1.27
2017-01-02T00:25:10.154Z,-1.33
2017-01-02T00:26:10.108Z,-1.31
2017-01-02T00:27:09.289Z,-1.3
2017-01-02T00:28:09.633Z,-1.27
2017-01-02T00:29:09.979Z,-1.3
2017-01-02T00:30:09.934Z,-1.27
2017-01-02T00:31:09.892Z,-1.31
2017-01-02T00:32:09.843Z,-1.27
2017-01-02T00:33:11.306Z,-1.38
2017-01-02T00:34:09.376Z,-1.27
2017-01-02T00:35:09.333Z,-1.28
2017-01-02T00:36:09.675Z,-1.3
2017-01-02T00:37:09.647Z,-1.27
2017-01-02T00:38:09.588Z,-1.17
2017-01-02T00:39:09.546Z,-1.3
2017-01-02T00:40:09.504Z,-1.23
2017-01-02T00:41:09.073Z,-1.19
2017-01-02T00:42:09.033Z,-1.28
2017-01-02T00:43:09.374Z,-1.17
2017-01-02T00:44:09.328Z,-1.31
2017-01-02T00:45:08.514Z,-1.16
2017-01-02T00:46:09.241Z,-1.28
2017-01-02T00:47:10.258Z,-1.25
2017-01-02T00:48:09.155Z,-1.19
2017-01-02T00:49:09.115Z,-1.15
2017-01-02T00:50:09.074Z,-1.17
2017-01-02T00:51:09.031Z,-1.15
2017-01-02T00:52:08.981Z,-1.16
2017-01-02T00:53:08.936Z,-1.15
2017-01-02T00:54:08.893Z,-1.22
2017-01-02T00:55:08.864Z,-1.31
2017-01-02T00:56:08.418Z,-1.27
2017-01-02T00:57:09.717Z,-1.23
2017-01-02T00:58:08.723Z,-1.28
2017-01-02T00:59:08.710Z,-1.31
2017-01-02T01:00:08.255Z,-1.25
2017-01-02T01:01:08.590Z,-1.22
2017-01-02T01:02:10.215Z,-1.31
2017-01-02T01:03:08.506Z,-1.17
2017-01-02T01:04:08.464Z,-1.27
2017-01-02T01:05:08.033Z,-1.16
2017-01-02T01:06:07.991Z,-1.19
2017-01-02T01:07:08.333Z,-1.19
2017-01-02T01:08:08.285Z,-1.19
2017-01-02T01:09:08.245Z,-1.17
2017-01-02T01:10:08.219Z,-1.17
2017-01-02T01:11:07.779Z,-1.17
2017-01-02T01:12:08.120Z,-1.22
2017-01-02T01:13:08.069Z,-1.19
2017-01-02T01:14:08.030Z,-1.19
2017-01-02T01:15:07.616Z,-1.23
2017-01-02T01:16:07.940Z,-1.22
2017-01-02T01:17:07.911Z,-1.23
2017-01-02T01:18:07.473Z,-1.23
2017-01-02T01:19:07.043Z,-1.23
2017-01-02T01:20:06.999Z,-1.28
2017-01-02T01:21:06.957Z,-1.15
2017-01-02T01:22:07.294Z,-1.16
2017-01-02T01:23:07.250Z,-1.19
2017-01-02T01:24:07.216Z,-1.16
2017-01-02T01:25:07.174Z,-1.19
2017-01-02T01:26:07.135Z,-1.17
2017-01-02T01:27:07.087Z,-1.05
2017-01-02T01:28:07.038Z,-1.17
2017-01-02T01:29:06.996Z,-1.23
2017-01-02T01:30:06.969Z,-1.16
2017-01-02T01:31:06.523Z,-1.22
2017-01-02T01:32:06.895Z,-1.12
2017-01-02T01:33:06.825Z,-1.19
2017-01-02T01:34:06.397Z,-1.13
2017-01-02T01:35:07.126Z,-1.09
2017-01-02T01:36:06.687Z,-1.19
2017-01-02T01:37:07.038Z,-1.12
2017-01-02T01:38:06.989Z,-1.04
2017-01-02T01:39:06.567Z,-1.16
2017-01-02T01:40:06.518Z,-1.19
2017-01-02T01:41:06.478Z,-1.19
2017-01-02T01:42:06.821Z,-1.19
2017-01-02T01:43:06.777Z,-1.34
2017-01-02T01:44:06.737Z,-1.2
2017-01-02T01:45:08.224Z,-1.28
2017-01-02T01:46:05.878Z,-1.23
2017-01-02T01:47:06.223Z,-1.23
2017-01-02T01:48:06.181Z,-1.27
2017-01-02T01:49:06.131Z,-1.17
2017-01-02T01:50:06.089Z,-1.22
2017-01-02T01:51:05.664Z,-1.23
2017-01-02T01:52:06.002Z,-1.22
2017-01-02T01:53:06.339Z,-1.19
2017-01-02T01:54:06.305Z,-1.27
2017-01-02T01:55:05.875Z,-1.25
2017-01-02T01:56:06.214Z,-1.13
2017-01-02T01:57:05.784Z,-1.19
2017-01-02T01:58:07.854Z,-1.15
2017-01-02T01:59:06.086Z,-1.07
2017-01-02T02:00:06.037Z,-1.12
2017-01-02T02:01:05.996Z,-1.1
2017-01-02T02:02:05.595Z,-1.16
2017-01-02T02:03:05.525Z,-1.15
2017-01-02T02:04:05.486Z,-1.15
2017-01-02T02:05:05.852Z,-1.13
2017-01-02T02:06:07.474Z,-1.19
2017-01-02T02:07:05.757Z,-1.22
2017-01-02T02:08:05.699Z,-1.17
2017-01-02T02:09:05.654Z,-1.17
2017-01-02T02:10:05.612Z,-1.16
2017-01-02T02:11:04.792Z,-1.23
2017-01-02T02:12:05.523Z,-1.22
2017-01-02T02:13:05.095Z,-1.22
2017-01-02T02:14:05.436Z,-1.23
2017-01-02T02:15:05.408Z,-1.3
2017-01-02T02:16:05.349Z,-1.3
2017-01-02T02:17:04.930Z,-1.28
2017-01-02T02:18:05.260Z,-1.41
2017-01-02T02:19:04.837Z,-1.4
2017-01-02T02:20:05.180Z,-1.34
2017-01-02T02:21:05.136Z,-1.31
2017-01-02T02:22:05.093Z,-1.28
2017-01-02T02:23:05.045Z,-1.3
2017-01-02T02:24:05.003Z,-1.3
2017-01-02T02:25:04.613Z,-1.31
2017-01-02T02:26:04.918Z,-1.28
2017-01-02T02:27:04.492Z,-1.35
2017-01-02T02:28:04.830Z,-1.31
2017-01-02T02:29:06.180Z,-1.37
2017-01-02T02:30:04.752Z,-1.34
2017-01-02T02:31:04.708Z,-1.31
2017-01-02T02:32:04.660Z,-1.41
2017-01-02T02:33:04.230Z,-1.38
2017-01-02T02:34:03.802Z,-1.43
2017-01-02T02:35:04.530Z,-1.4
2017-01-02T02:36:04.481Z,-1.4
2017-01-02T02:37:04.061Z,-1.33
2017-01-02T02:38:04.398Z,-1.41
2017-01-02T02:39:04.356Z,-1.35
2017-01-02T02:40:03.937Z,-1.41
2017-01-02T02:41:03.887Z,-1.43
2017-01-02T02:42:03.845Z,-1.43
2017-01-02T02:43:04.183Z,-1.38
2017-01-02T02:44:04.537Z,-1.43
2017-01-02T02:45:04.096Z,-1.34
2017-01-02T02:46:04.052Z,-1.35
2017-01-02T02:47:04.023Z,-1.35
2017-01-02T02:48:03.962Z,-1.34
2017-01-02T02:49:03.924Z,-1.43
2017-01-02T02:50:03.496Z,-1.41
2017-01-02T02:51:03.840Z,-1.41
2017-01-02T02:52:03.410Z,-1.3
2017-01-02T02:53:03.748Z,-1.38
2017-01-02T02:54:03.710Z,-1.4
2017-01-02T02:55:03.663Z,-1.37
2017-01-02T02:56:03.617Z,-1.4
2017-01-02T02:57:03.190Z,-1.43
2017-01-02T02:58:03.150Z,-1.4
2017-01-02T02:59:03.489Z,-1.48
2017-01-02T03:00:03.062Z,-1.48
2017-01-02T03:01:03.399Z,-1.38
2017-01-02T03:02:03.359Z,-1.49
2017-01-02T03:03:03.315Z,-1.4
2017-01-02T03:04:02.889Z,-1.48
2017-01-02T03:05:02.850Z,-1.46
2017-01-02T03:06:02.802Z,-1.55
2017-01-02T03:07:02.756Z,-1.45
2017-01-02T03:08:03.102Z,-1.51
2017-01-02T03:09:03.054Z,-1.54
2017-01-02T03:10:02.629Z,-1.55
2017-01-02T03:11:02.586Z,-1.45
2017-01-02T03:12:02.924Z,-1.54
2017-01-02T03:13:02.499Z,-1.46
2017-01-02T03:14:02.837Z,-1.56
2017-01-02T03:15:02.411Z,-1.54
2017-01-02T03:16:02.370Z,-1.45
2017-01-02T03:17:02.324Z,-1.55
2017-01-02T03:18:01.896Z,-1.58
2017-01-02T03:19:02.624Z,-1.46
2017-01-02T03:20:02.578Z,-1.46
2017-01-02T03:21:02.539Z,-1.54
2017-01-02T03:22:02.664Z,-1.46
2017-01-02T03:23:02.447Z,-1.55
2017-01-02T03:24:02.404Z,-1.56
2017-01-02T03:25:02.368Z,-1.46
2017-01-02T03:26:01.931Z,-1.54
2017-01-02T03:27:02.273Z,-1.48
2017-01-02T03:28:01.846Z,-1.54
2017-01-02T03:29:02.190Z,-1.64
2017-01-02T03:30:01.768Z,-1.64
2017-01-02T03:31:01.716Z,-1.62
2017-01-02T03:32:02.059Z,-1.74
2017-01-02T03:33:01.632Z,-1.69
2017-01-02T03:34:01.589Z,-1.64
2017-01-02T03:35:01.542Z,-1.67
2017-01-02T03:36:01.891Z,-1.67
2017-01-02T03:37:01.070Z,-1.66
2017-01-02T03:38:01.424Z,-1.67
2017-01-02T03:39:00.981Z,-1.7
2017-01-02T03:40:01.711Z,-1.64
2017-01-02T03:41:01.672Z,-1.61
2017-01-02T03:42:01.629Z,-1.62
2017-01-02T03:43:01.585Z,-1.69
2017-01-02T03:44:01.153Z,-1.72
2017-01-02T03:45:01.118Z,-1.76
2017-01-02T03:46:01.454Z,-1.74
2017-01-02T03:47:01.408Z,-1.72
2017-01-02T03:48:01.364Z,-1.77
2017-01-02T03:49:01.322Z,-1.7
2017-01-02T03:50:01.278Z,-1.76
2017-01-02T03:51:01.236Z,-1.74
2017-01-02T03:52:00.804Z,-1.76
2017-01-02T03:53:02.566Z,-1.73
2017-01-02T03:54:00.723Z,-1.76
2017-01-02T03:55:01.062Z,-1.64
2017-01-02T03:56:00.256Z,-1.72
2017-01-02T03:57:00.585Z,-1.66
2017-01-02T03:58:00.935Z,-1.61
2017-01-02T03:59:00.886Z,-1.73
2017-01-02T04:00:00.462Z,-1.7
2017-01-02T04:01:00.416Z,-1.67
2017-01-02T04:02:00.758Z,-1.69
2017-01-02T04:03:00.333Z,-1.74
2017-01-02T04:04:00.672Z,-1.62
2017-01-02T04:05:00.625Z,-1.73
2017-01-02T04:06:00.204Z,-1.69
2017-01-02T04:07:00.541Z,-1.67
2017-01-02T04:08:00.495Z,-1.74
2017-01-02T04:08:59.686Z,-1.76
2017-01-02T04:10:00.415Z,-1.72
2017-01-02T04:11:00.368Z,-1.73
2017-01-02T04:12:00.324Z,-1.74
2017-01-02T04:12:59.508Z,-1.67
2017-01-02T04:14:00.239Z,-1.66
2017-01-02T04:15:00.195Z,-1.72
2017-01-02T04:16:00.156Z,-1.72
2017-01-02T04:17:00.111Z,-1.69
2017-01-02T04:18:00.063Z,-1.76
2017-01-02T04:18:59.633Z,-1.7
2017-01-02T04:19:59.977Z,-1.73
2017-01-02T04:20:59.935Z,-1.74
2017-01-02T04:21:59.888Z,-1.73
2017-01-02T04:22:59.462Z,-1.76
2017-01-02T04:23:59.802Z,-1.73
2017-01-02T04:24:59.375Z,-1.69
2017-01-02T04:25:59.711Z,-1.74
2017-01-02T04:26:59.670Z,-1.73
2017-01-02T04:27:59.237Z,-1.74
2017-01-02T04:28:59.593Z,-1.73
2017-01-02T04:29:59.541Z,-1.67
2017-01-02T04:30:59.112Z,-1.74
2017-01-02T04:31:59.069Z,-1.7
2017-01-02T04:32:59.613Z,-1.8
2017-01-02T04:33:58.983Z,-1.79
2017-01-02T04:34:59.321Z,-1.77
2017-01-02T04:35:59.283Z,-1.74
2017-01-02T04:36:58.851Z,-1.7
2017-01-02T04:37:59.199Z,-1.76
2017-01-02T04:38:59.150Z,-1.76
2017-01-02T04:39:59.115Z,-1.73
2017-01-02T04:40:58.677Z,-1.79
2017-01-02T04:41:58.633Z,-1.76
2017-01-02T04:42:58.985Z,-1.79
2017-01-02T04:43:58.549Z,-1.82
2017-01-02T04:44:59.481Z,-1.77
2017-01-02T04:45:58.848Z,-1.77
2017-01-02T04:46:58.806Z,-1.79
2017-01-02T04:47:58.760Z,-1.73
2017-01-02T04:48:58.717Z,-1.8
2017-01-02T04:49:58.675Z,-1.82
2017-01-02T04:50:57.859Z,-1.76
2017-01-02T04:51:58.584Z,-1.77
2017-01-02T04:52:58.554Z,-1.77
2017-01-02T04:53:58.499Z,-1.77
2017-01-02T04:54:57.693Z,-1.76
2017-01-02T04:55:57.642Z,-1.82
2017-01-02T04:56:58.366Z,-1.8
2017-01-02T04:57:58.329Z,-1.79
2017-01-02T04:58:58.278Z,-1.77
2017-01-02T04:59:57.854Z,-1.74
2017-01-02T05:00:58.193Z,-1.8
2017-01-02T05:01:58.152Z,-1.73
2017-01-02T05:02:58.108Z,-1.8
2017-01-02T05:03:58.060Z,-1.88
2017-01-02T05:04:57.636Z,-1.87
2017-01-02T05:05:57.600Z,-1.87
2017-01-02T05:06:57.933Z,-1.91
2017-01-02T05:07:57.508Z,-1.84
2017-01-02T05:08:57.843Z,-1.87
2017-01-02T05:09:57.413Z,-1.82
2017-01-02T05:10:57.758Z,-1.92
2017-01-02T05:11:59.655Z,-1.8
2017-01-02T05:12:57.672Z,-1.76
2017-01-02T05:13:57.634Z,-1.77
2017-01-02T05:14:57.588Z,-1.76
2017-01-02T05:15:57.540Z,-1.76
2017-01-02T05:16:57.113Z,-1.79
2017-01-02T05:17:57.070Z,-1.73
2017-01-02T05:18:57.030Z,-1.76
2017-01-02T05:19:56.987Z,-1.73
2017-01-02T05:20:56.937Z,-1.66
2017-01-02T05:21:56.895Z,-1.64
2017-01-02T05:22:57.237Z,-1.72
2017-01-02T05:23:57.197Z,-1.66
2017-01-02T05:24:56.770Z,-1.56
2017-01-02T05:25:57.111Z,-1.7
2017-01-02T05:26:57.062Z,-1.66
2017-01-02T05:27:57.028Z,-1.66
2017-01-02T05:28:56.983Z,-1.67
2017-01-02T05:29:56.936Z,-1.67
2017-01-02T05:30:56.895Z,-1.69
2017-01-02T05:31:56.848Z,-1.69
2017-01-02T05:32:56.804Z,-1.73
2017-01-02T05:33:56.761Z,-1.62
2017-01-02T05:34:56.713Z,-1.69
2017-01-02T05:35:56.305Z,-1.72
2017-01-02T05:36:56.632Z,-1.67
2017-01-02T05:37:56.206Z,-1.66
2017-01-02T05:38:56.161Z,-1.69
2017-01-02T05:39:56.507Z,-1.64
2017-01-02T05:40:56.456Z,-1.69
2017-01-02T05:41:56.024Z,-1.69
2017-01-02T05:42:55.981Z,-1.69
2017-01-02T05:43:56.325Z,-1.7
2017-01-02T05:44:56.286Z,-1.73
2017-01-02T05:45:56.236Z,-1.66
2017-01-02T05:46:56.193Z,-1.66
2017-01-02T05:47:56.149Z,-1.62
2017-01-02T05:48:56.111Z,-1.72
2017-01-02T05:49:55.292Z,-1.72
2017-01-02T05:50:55.634Z,-1.76
2017-01-02T05:51:55.590Z,-1.74
2017-01-02T05:52:55.934Z,-1.64
2017-01-02T05:53:55.893Z,-1.66
2017-01-02T05:54:55.459Z,-1.69
2017-01-02T05:55:55.801Z,-1.67
2017-01-02T05:56:55.385Z,-1.61
2017-01-02T05:57:55.716Z,-1.74
2017-01-02T05:58:55.291Z,-1.67
2017-01-02T05:59:55.636Z,-1.69
2017-01-02T06:00:55.592Z,-1.64
2017-01-02T06:01:55.544Z,-1.64
2017-01-02T06:02:55.117Z,-1.72
2017-01-02T06:03:55.462Z,-1.67
2017-01-02T06:04:55.025Z,-1.7
2017-01-02T06:05:55.014Z,-1.64
2017-01-02T06:06:54.941Z,-1.64
2017-01-02T06:07:55.295Z,-1.7
2017-01-02T06:08:55.264Z,-1.66
2017-01-02T06:09:54.807Z,-1.69
2017-01-02T06:10:55.154Z,-1.67
2017-01-02T06:11:54.335Z,-1.69
2017-01-02T06:12:55.075Z,-1.72
2017-01-02T06:13:55.021Z,-1.73
2017-01-02T06:14:54.977Z,-1.64
2017-01-02T06:15:54.936Z,-1.67
2017-01-02T06:16:54.890Z,-1.69
2017-01-02T06:17:54.850Z,-1.62
2017-01-02T06:18:54.805Z,-1.67
2017-01-02T06:19:54.373Z,-1.69
2017-01-02T06:20:54.726Z,-1.73
2017-01-02T06:21:53.905Z,-1.64
2017-01-02T06:22:54.633Z,-1.61
2017-01-02T06:23:56.486Z,-1.7
2017-01-02T06:24:54.163Z,-1.72
2017-01-02T06:25:54.113Z,-1.62
2017-01-02T06:26:54.456Z,-1.72
2017-01-02T06:27:54.038Z,-1.73
2017-01-02T06:28:54.373Z,-1.56
2017-01-02T06:29:54.325Z,-1.56
2017-01-02T06:30:54.309Z,-1.58
2017-01-02T06:31:54.243Z,-1.69
2017-01-02T06:32:54.194Z,-1.58
2017-01-02T06:33:54.175Z,-1.58
2017-01-02T06:34:53.724Z,-1.59
2017-01-02T06:35:54.067Z,-1.59
2017-01-02T06:36:54.022Z,-1.55
2017-01-02T06:37:53.979Z,-1.58
2017-01-02T06:38:53.935Z,-1.52
2017-01-02T06:39:53.895Z,-1.58
2017-01-02T06:40:53.855Z,-1.55
2017-01-02T06:41:53.809Z,-1.52
2017-01-02T06:42:52.990Z,-1.54
2017-01-02T06:43:53.719Z,-1.54
2017-01-02T06:44:53.673Z,-1.54
2017-01-02T06:45:53.632Z,-1.49
2017-01-02T06:46:53.590Z,-1.56
2017-01-02T06:47:53.541Z,-1.49
2017-01-02T06:48:53.508Z,-1.54
2017-01-02T06:49:53.077Z,-1.54
2017-01-02T06:50:53.412Z,-1.55
2017-01-02T06:51:53.407Z,-1.56
2017-01-02T06:52:53.332Z,-1.55
2017-01-02T06:53:53.284Z,-1.45
2017-01-02T06:54:53.242Z,-1.52
2017-01-02T06:55:53.199Z,-1.59
2017-01-02T06:56:53.162Z,-1.55
2017-01-02T06:57:52.338Z,-1.56
2017-01-02T06:58:53.074Z,-1.55
2017-01-02T06:59:53.030Z,-1.54
2017-01-02T07:00:52.623Z,-1.66
2017-01-02T07:01:52.567Z,-1.55
2017-01-02T07:02:52.899Z,-1.59
2017-01-02T07:03:52.852Z,-1.51
2017-01-02T07:04:52.806Z,-1.43
2017-01-02T07:05:52.763Z,-1.43
2017-01-02T07:06:52.335Z,-1.45
2017-01-02T07:07:52.680Z,-1.49
2017-01-02T07:08:52.255Z,-1.4
2017-01-02T07:09:52.589Z,-1.4
2017-01-02T07:10:52.545Z,-1.48
2017-01-02T07:11:52.502Z,-1.45
2017-01-02T07:12:52.463Z,-1.49
2017-01-02T07:13:52.029Z,-1.49
2017-01-02T07:14:52.380Z,-1.49
2017-01-02T07:15:51.948Z,-1.49
2017-01-02T07:16:53.171Z,-1.43
2017-01-02T07:17:51.854Z,-1.46
2017-01-02T07:18:51.812Z,-1.43
2017-01-02T07:19:51.772Z,-1.46
2017-01-02T07:20:52.111Z,-1.43
2017-01-02T07:21:52.066Z,-1.45
2017-01-02T07:22:52.028Z,-1.45
2017-01-02T07:23:51.599Z,-1.49
2017-01-02T07:24:51.171Z,-1.48
2017-01-02T07:25:51.896Z,-1.46
2017-01-02T07:26:51.851Z,-1.46
2017-01-02T07:27:51.807Z,-1.43
2017-01-02T07:28:51.387Z,-1.4
2017-01-02T07:29:51.720Z,-1.38
2017-01-02T07:30:51.681Z,-1.41
2017-01-02T07:31:51.254Z,-1.38
2017-01-02T07:32:51.590Z,-1.3
2017-01-02T07:33:51.551Z,-1.43
2017-01-02T07:34:51.506Z,-1.38
2017-01-02T07:35:51.463Z,-1.4
2017-01-02T07:36:51.427Z,-1.4
2017-01-02T07:37:51.374Z,-1.31
2017-01-02T07:38:51.335Z,-1.3
2017-01-02T07:39:51.292Z,-1.28
2017-01-02T07:40:51.249Z,-1.28
2017-01-02T07:41:51.205Z,-1.25
2017-01-02T07:42:51.182Z,-1.25
2017-01-02T07:43:50.732Z,-1.28
2017-01-02T07:44:51.072Z,-1.19
2017-01-02T07:45:51.037Z,-1.28
2017-01-02T07:46:50.601Z,-1.27
2017-01-02T07:47:50.969Z,-1.25
2017-01-02T07:48:50.516Z,-1.27
2017-01-02T07:50:04.988Z,-1.17
2017-01-02T07:50:50.818Z,-1.31
2017-01-02T07:51:50.775Z,-1.28
2017-01-02T07:52:50.724Z,-1.2
2017-01-02T07:53:50.684Z,-1.23
2017-01-02T07:54:50.258Z,-1.2
2017-01-02T07:55:50.213Z,-1.25
2017-01-02T07:56:49.785Z,-1.25
2017-01-02T07:57:50.508Z,-1.22
2017-01-02T07:58:50.462Z,-1.27
2017-01-02T07:59:50.421Z,-1.17
2017-01-02T08:00:50.387Z,-1.22
2017-01-02T08:01:49.955Z,-1.17
2017-01-02T08:02:50.296Z,-1.12
2017-01-02T08:03:50.249Z,-1.16
2017-01-02T08:04:50.216Z,-1.16
2017-01-02T08:05:50.163Z,-1.13
2017-01-02T08:06:50.116Z,-1.01
2017-01-02T08:07:50.080Z,-1.02
2017-01-02T08:08:49.261Z,-1.16
2017-01-02T08:09:49.992Z,-1.1
2017-01-02T08:10:49.181Z,-1.05
2017-01-02T08:11:49.913Z,-0.98
2017-01-02T08:12:49.476Z,-0.99
2017-01-02T08:13:49.825Z,-0.95
2017-01-02T08:14:49.775Z,-0.97
2017-01-02T08:15:49.729Z,-0.99
2017-01-02T08:16:49.300Z,-0.99
2017-01-02T08:17:49.258Z,-0.99
2017-01-02T08:18:49.604Z,-0.89
2017-01-02T08:19:49.554Z,-0.92
2017-01-02T08:20:49.162Z,-0.82
2017-01-02T08:21:49.472Z,-0.86
2017-01-02T08:22:49.429Z,-0.8
2017-01-02T08:23:48.611Z,-0.79
2017-01-02T08:24:48.954Z,-0.76
2017-01-02T08:25:48.914Z,-0.76
2017-01-02T08:26:49.260Z,-0.76
2017-01-02T08:27:49.214Z,-0.78
2017-01-02T08:28:49.203Z,-0.76
2017-01-02T08:29:49.125Z,-0.75
2017-01-02T08:30:49.079Z,-0.7
2017-01-02T08:31:48.655Z,-0.65
2017-01-02T08:32:48.997Z,-0.6
2017-01-02T08:33:48.954Z,-0.7
2017-01-02T08:34:48.930Z,-0.72
2017-01-02T08:35:48.481Z,-0.62
2017-01-02T08:36:48.825Z,-0.7
2017-01-02T08:37:48.017Z,-0.69
2017-01-02T08:38:48.355Z,-0.55
2017-01-02T08:39:48.696Z,-0.62
2017-01-02T08:40:48.268Z,-0.58
2017-01-02T08:41:48.616Z,-0.61
2017-01-02T08:42:48.565Z,-0.61
2017-01-02T08:43:48.143Z,-0.61
2017-01-02T08:44:48.482Z,-0.51
2017-01-02T08:45:48.440Z,-0.55
2017-01-02T08:46:48.009Z,-0.54
2017-01-02T08:47:48.351Z,-0.57
2017-01-02T08:48:48.311Z,-0.52
2017-01-02T08:49:48.263Z,-0.52
2017-01-02T08:50:47.838Z,-0.47
2017-01-02T08:51:48.184Z,-0.61
2017-01-02T08:52:48.137Z,-0.61
2017-01-02T08:53:47.765Z,-0.57
2017-01-02T08:54:47.702Z,-0.58
2017-01-02T08:55:48.041Z,-0.57
2017-01-02T08:56:47.968Z,-0.46
2017-01-02T08:57:47.937Z,-0.57
2017-01-02T08:58:47.517Z,-0.54
2017-01-02T08:59:47.461Z,-0.44
2017-01-02T09:00:47.797Z,-0.42
2017-01-02T09:01:47.761Z,-0.37
2017-01-02T09:02:47.327Z,-0.36
2017-01-02T09:03:47.326Z,-0.47
2017-01-02T09:04:47.244Z,-0.52
2017-01-02T09:05:47.200Z,-0.64
2017-01-02T09:06:47.532Z,-0.64
2017-01-02T09:07:47.496Z,-0.54
2017-01-02T09:08:47.454Z,-0.58
2017-01-02T09:09:46.635Z,-0.61
2017-01-02T09:10:47.369Z,-0.55
2017-01-02T09:11:46.941Z,-0.61
2017-01-02T09:12:46.897Z,-0.46
2017-01-02T09:13:47.247Z,-0.61
2017-01-02T09:14:47.193Z,-0.62
2017-01-02T09:15:47.155Z,-0.65
2017-01-02T09:16:47.105Z,-0.64
2017-01-02T09:17:47.069Z,-0.7
2017-01-02T09:18:46.639Z,-0.72
2017-01-02T09:19:46.592Z,-0.75
2017-01-02T09:20:46.552Z,-0.78
2017-01-02T09:21:46.513Z,-0.79
2017-01-02T09:22:46.469Z,-0.75
2017-01-02T09:23:46.804Z,-0.73
2017-01-02T09:24:46.765Z,-0.75
2017-01-02T09:25:46.720Z,-0.69
2017-01-02T09:26:46.679Z,-0.64
2017-01-02T09:27:46.636Z,-0.7
2017-01-02T09:28:46.209Z,-0.62
2017-01-02T09:29:46.552Z,-0.61
2017-01-02T09:30:46.117Z,-0.62
2017-01-02T09:31:46.093Z,-0.57
2017-01-02T09:32:45.652Z,-0.58
2017-01-02T09:33:46.386Z,-0.61
2017-01-02T09:34:46.336Z,-0.6
2017-01-02T09:35:46.293Z,-0.57
2017-01-02T09:36:46.250Z,-0.62
2017-01-02T09:37:45.823Z,-0.64
2017-01-02T09:38:46.159Z,-0.69
2017-01-02T09:39:46.119Z,-0.72
2017-01-02T09:40:46.079Z,-0.69
2017-01-02T09:41:45.658Z,-0.73
2017-01-02T09:42:45.268Z,-0.75
2017-01-02T09:43:46.000Z,-0.72
2017-01-02T09:44:45.903Z,-0.61
2017-01-02T09:45:45.860Z,-0.62
2017-01-02T09:46:45.433Z,-0.6
2017-01-02T09:47:45.811Z,-0.58
2017-01-02T09:48:45.347Z,-0.57
2017-01-02T09:49:45.692Z,-0.46
2017-01-02T09:50:44.879Z,-0.43
2017-01-02T09:51:45.609Z,-0.42
2017-01-02T09:52:45.593Z,-0.37
2017-01-02T09:53:45.132Z,-0.31
2017-01-02T09:54:45.478Z,-0.26
2017-01-02T09:55:45.050Z,-0.29
2017-01-02T09:56:45.388Z,-0.26
2017-01-02T09:57:44.973Z,-0.26
2017-01-02T09:58:45.305Z,-0.28
2017-01-02T09:59:44.870Z,-0.34
2017-01-02T10:00:45.218Z,-0.28
2017-01-02T10:01:44.783Z,-0.39
2017-01-02T10:02:45.129Z,-0.39
2017-01-02T10:03:44.700Z,-0.36
2017-01-02T10:04:45.044Z,-0.33
2017-01-02T10:05:45.031Z,-0.21
2017-01-02T10:06:44.962Z,-0.23
2017-01-02T10:07:44.920Z,-0.21
2017-01-02T10:08:44.105Z,-0.29
2017-01-02T10:09:44.838Z,-0.25
2017-01-02T10:10:44.400Z,-0.21
2017-01-02T10:11:44.747Z,-0.21
2017-01-02T10:12:44.317Z,-0.07
2017-01-02T10:13:44.655Z,-0.19
2017-01-02T10:14:44.233Z,-0.16
2017-01-02T10:15:44.570Z,-0.14
2017-01-02T10:16:44.535Z,-0.15
2017-01-02T10:17:44.114Z,-0.18
2017-01-02T10:18:44.062Z,-0.08
2017-01-02T10:19:44.412Z,-0.05
2017-01-02T10:20:44.363Z,-0.01
2017-01-02T10:21:44.314Z,-0.01
2017-01-02T10:22:43.932Z,0.02
2017-01-02T10:23:43.847Z,0.04
2017-01-02T10:24:44.223Z,0.07
2017-01-02T10:25:43.790Z,0.11
2017-01-02T10:26:44.100Z,0.15
2017-01-02T10:27:43.672Z,0.11
2017-01-02T10:28:44.050Z,0.18
2017-01-02T10:29:44.010Z,0.23
2017-01-02T10:30:43.551Z,0.08
2017-01-02T10:31:43.499Z,0.17
2017-01-02T10:32:43.454Z,0.21
2017-01-02T10:33:43.417Z,0.2
2017-01-02T10:34:43.376Z,0.28
2017-01-02T10:35:43.330Z,0.23
2017-01-02T10:36:42.903Z,0.2
2017-01-02T10:37:43.631Z,0.29
2017-01-02T10:38:43.591Z,0.32
2017-01-02T10:39:43.543Z,0.31
2017-01-02T10:40:43.500Z,0.46
2017-01-02T10:41:42.687Z,0.47
2017-01-02T10:42:43.027Z,0.49
2017-01-02T10:43:43.371Z,0.53
2017-01-02T10:44:42.952Z,0.51
2017-01-02T10:45:43.289Z,0.66
2017-01-02T10:46:42.860Z,0.62
2017-01-02T10:47:42.851Z,0.7
2017-01-02T10:48:43.160Z,0.78
2017-01-02T10:49:43.116Z,0.76
2017-01-02T10:50:43.073Z,0.73
2017-01-02T10:51:43.031Z,0.78
2017-01-02T10:52:43.004Z,0.88
2017-01-02T10:53:42.950Z,0.96
2017-01-02T10:54:42.904Z,0.96
2017-01-02T10:55:42.478Z,0.94
2017-01-02T10:56:42.433Z,1.06
2017-01-02T10:57:42.009Z,1.06
2017-01-02T10:58:42.736Z,1.05
2017-01-02T10:59:42.732Z,1.08
2017-01-02T11:00:42.652Z,1.12
2017-01-02T11:01:42.606Z,1.12
2017-01-02T11:02:42.569Z,1.22
2017-01-02T11:03:42.526Z,1.2
2017-01-02T11:04:42.481Z,1.15
2017-01-02T11:05:42.054Z,1.23
2017-01-02T11:06:42.398Z,1.26
2017-01-02T11:07:42.357Z,1.16
2017-01-02T11:08:42.312Z,1.26
2017-01-02T11:09:41.506Z,1.24
2017-01-02T11:10:41.839Z,1.27
2017-01-02T11:11:42.187Z,1.44
2017-01-02T11:12:42.150Z,1.45
2017-01-02T11:13:42.107Z,1.52
2017-01-02T11:14:42.065Z,1.59
2017-01-02T11:15:42.019Z,1.68
2017-01-02T11:16:41.979Z,1.88
2017-01-02T11:17:41.934Z,1.98
2017-01-02T11:18:41.894Z,1.93
2017-01-02T11:19:41.851Z,1.91
2017-01-02T11:20:41.423Z,2.07
2017-01-02T11:21:40.992Z,2.05
2017-01-02T11:22:41.734Z,2.05
2017-01-02T11:23:41.688Z,2.14
2017-01-02T11:24:41.650Z,2.2
2017-01-02T11:25:41.217Z,2.14
2017-01-02T11:26:41.561Z,2.28
2017-01-02T11:27:41.519Z,2.25
2017-01-02T11:28:41.473Z,2.27
2017-01-02T11:29:41.434Z,2.28
2017-01-02T11:30:41.395Z,2.41
2017-01-02T11:31:41.351Z,2.48
2017-01-02T11:32:40.922Z,2.43
2017-01-02T11:33:41.273Z,2.46
2017-01-02T11:34:41.223Z,2.53
2017-01-02T11:35:40.802Z,2.52
2017-01-02T11:36:41.144Z,2.59
2017-01-02T11:37:40.714Z,2.67
2017-01-02T11:38:40.679Z,2.66
2017-01-02T11:39:40.634Z,2.61
2017-01-02T11:40:40.596Z,2.63
2017-01-02T11:41:40.939Z,2.6
2017-01-02T11:42:40.899Z,2.54
2017-01-02T11:43:40.859Z,2.43
2017-01-02T11:44:40.817Z,2.54
2017-01-02T11:45:40.002Z,2.57
2017-01-02T11:46:40.740Z,2.57
2017-01-02T11:47:40.689Z,2.54
2017-01-02T11:48:40.647Z,2.56
2017-01-02T11:49:40.604Z,2.46
2017-01-02T11:50:40.579Z,2.49
2017-01-02T11:51:40.526Z,2.42
2017-01-02T11:52:40.489Z,2.45
2017-01-02T11:53:40.443Z,2.59
2017-01-02T11:54:39.631Z,2.56
2017-01-02T11:55:40.357Z,2.61
2017-01-02T11:56:39.938Z,2.56
2017-01-02T11:57:40.274Z,2.45
2017-01-02T11:58:40.236Z,2.43
2017-01-02T11:59:40.194Z,2.46
2017-01-02T12:00:39.770Z,2.57
2017-01-02T12:01:39.724Z,2.67
2017-01-02T12:02:40.069Z,2.69
2017-01-02T12:03:40.029Z,2.87
2017-01-02T12:04:39.607Z,2.9
2017-01-02T12:05:39.946Z,2.99
2017-01-02T12:06:39.908Z,2.84
2017-01-02T12:07:39.487Z,3.06
2017-01-02T12:08:39.825Z,3.18
2017-01-02T12:09:39.781Z,3.28
2017-01-02T12:10:39.775Z,3.47
2017-01-02T12:11:39.705Z,3.54
2017-01-02T12:12:39.278Z,3.58
2017-01-02T12:13:39.616Z,3.72
2017-01-02T12:14:39.580Z,3.87
2017-01-02T12:15:39.159Z,3.98
2017-01-02T12:16:39.111Z,4.24
2017-01-02T12:17:39.453Z,4.42
2017-01-02T12:18:39.028Z,4.75
2017-01-02T12:19:39.374Z,4.88
2017-01-02T12:20:38.951Z,5.02
2017-01-02T12:21:38.909Z,4.99
2017-01-02T12:22:39.258Z,4.96
2017-01-02T12:23:39.218Z,5.06
2017-01-02T12:24:38.787Z,5.15
2017-01-02T12:25:38.747Z,5.17
2017-01-02T12:26:38.712Z,5.18
2017-01-02T12:27:39.053Z,5.22
2017-01-02T12:28:38.631Z,5.25
2017-01-02T12:29:38.601Z,5.3
2017-01-02T12:30:38.548Z,5.33
2017-01-02T12:31:38.119Z,5.25
2017-01-02T12:32:38.855Z,5.18
2017-01-02T12:33:38.817Z,5.18
2017-01-02T12:34:38.389Z,5.1
2017-01-02T12:35:38.733Z,4.96
2017-01-02T12:36:38.694Z,4.72
2017-01-02T12:37:38.656Z,4.48
2017-01-02T12:38:38.226Z,4.32
2017-01-02T12:39:38.572Z,4.2
2017-01-02T12:40:38.150Z,3.98
2017-01-02T12:41:38.114Z,3.79
2017-01-02T12:42:38.462Z,3.78
2017-01-02T12:43:38.025Z,3.68
2017-01-02T12:44:38.382Z,3.6
2017-01-02T12:45:38.335Z,3.55
2017-01-02T12:46:38.299Z,3.47
2017-01-02T12:47:38.257Z,3.45
2017-01-02T12:48:38.228Z,3.43
2017-01-02T12:49:38.173Z,3.39
2017-01-02T12:50:38.141Z,3.4
2017-01-02T12:51:37.711Z,3.39
2017-01-02T12:52:38.056Z,3.45
2017-01-02T12:53:37.653Z,3.33
2017-01-02T12:54:37.980Z,3.35
2017-01-02T12:55:37.936Z,3.45
2017-01-02T12:56:37.895Z,3.61
2017-01-02T12:57:37.851Z,3.65
2017-01-02T12:58:37.423Z,3.68
2017-01-02T12:59:37.769Z,3.73